sensor_id;sensor_type;location;lat;lon;timestamp;pressure;altitude;pressure_sealevel;temperature;humidity
53647;BME280;39550;52.230;5.194;2022-09-06T00:00:35;101537.78;;;21.92;59.57
53647;BME280;39550;52.230;5.194;2022-09-06T00:03:02;101532.53;;;21.92;59.69
53647;BME280;39550;52.230;5.194;2022-09-06T00:05:28;101523.84;;;21.90;59.71
53647;BME280;39550;52.230;5.194;2022-09-06T00:07:57;101523.84;;;21.90;59.46
53647;BME280;39550;52.230;5.194;2022-09-06T00:10:23;101516.88;;;21.89;59.57
53647;BME280;39550;52.230;5.194;2022-09-06T00:12:48;101520.41;;;21.88;59.70
53647;BME280;39550;52.230;5.194;2022-09-06T00:15:13;101514.28;;;21.87;59.90
53647;BME280;39550;52.230;5.194;2022-09-06T00:17:39;101518.69;;;21.87;59.78
53647;BME280;39550;52.230;5.194;2022-09-06T00:20:05;101504.72;;;21.86;59.75
53647;BME280;39550;52.230;5.194;2022-09-06T00:22:33;101506.56;;;21.83;59.70
53647;BME280;39550;52.230;5.194;2022-09-06T00:24:58;101507.34;;;21.85;60.47
53647;BME280;39550;52.230;5.194;2022-09-06T00:27:24;101509.97;;;21.85;60.23
53647;BME280;39550;52.230;5.194;2022-09-06T00:29:49;101510.88;;;21.85;59.84
53647;BME280;39550;52.230;5.194;2022-09-06T00:32:15;101505.66;;;21.84;60.15
53647;BME280;39550;52.230;5.194;2022-09-06T00:34:40;101502.16;;;21.83;60.17
53647;BME280;39550;52.230;5.194;2022-09-06T00:37:06;101504.84;;;21.82;60.24
53647;BME280;39550;52.230;5.194;2022-09-06T00:39:31;101506.59;;;21.81;60.28
53647;BME280;39550;52.230;5.194;2022-09-06T00:41:56;101512.75;;;21.80;60.02
53647;BME280;39550;52.230;5.194;2022-09-06T00:44:22;101523.25;;;21.80;60.49
53647;BME280;39550;52.230;5.194;2022-09-06T00:46:49;101529.34;;;21.81;60.45
53647;BME280;39550;52.230;5.194;2022-09-06T00:49:23;101540.75;;;21.80;60.50
53647;BME280;39550;52.230;5.194;2022-09-06T00:51:55;101523.47;;;21.72;60.49
53647;BME280;39550;52.230;5.194;2022-09-06T00:54:21;101529.53;;;21.74;60.35
53647;BME280;39550;52.230;5.194;2022-09-06T00:56:47;101526.00;;;21.75;60.38
53647;BME280;39550;52.230;5.194;2022-09-06T00:59:13;101520.75;;;21.75;60.34
53647;BME280;39550;52.230;5.194;2022-09-06T01:01:39;101536.50;;;21.75;60.44
53647;BME280;39550;52.230;5.194;2022-09-06T01:04:05;101529.53;;;21.74;60.36
53647;BME280;39550;52.230;5.194;2022-09-06T01:06:42;101512.25;;;21.67;60.81
53647;BME280;39550;52.230;5.194;2022-09-06T01:14:50;101493.00;;;21.68;60.64
53647;BME280;39550;52.230;5.194;2022-09-06T01:26:23;101507.91;;;21.66;61.06
53647;BME280;39550;52.230;5.194;2022-09-06T01:28:57;101499.34;;;21.59;60.72
53647;BME280;39550;52.230;5.194;2022-09-06T01:31:31;101508.78;;;21.65;61.05
53647;BME280;39550;52.230;5.194;2022-09-06T01:36:32;101500.13;;;21.63;60.76
53647;BME280;39550;52.230;5.194;2022-09-06T01:38:59;101502.75;;;21.63;61.08
53647;BME280;39550;52.230;5.194;2022-09-06T01:41:24;101490.53;;;21.62;61.06
53647;BME280;39550;52.230;5.194;2022-09-06T01:43:51;101487.91;;;21.62;61.04
53647;BME280;39550;52.230;5.194;2022-09-06T01:46:26;101487.09;;;21.60;61.41
53647;BME280;39550;52.230;5.194;2022-09-06T01:51:48;101472.25;;;21.59;61.20
53647;BME280;39550;52.230;5.194;2022-09-06T01:57:16;101460.03;;;21.58;61.31
53647;BME280;39550;52.230;5.194;2022-09-06T02:05:28;101427.78;;;21.56;61.37
53647;BME280;39550;52.230;5.194;2022-09-06T02:07:46;101409.44;;;21.54;61.29
53647;BME280;39550;52.230;5.194;2022-09-06T02:10:15;101401.56;;;21.54;61.24
53647;BME280;39550;52.230;5.194;2022-09-06T02:12:44;101394.63;;;21.53;61.28
53647;BME280;39550;52.230;5.194;2022-09-06T02:15:22;101367.53;;;21.53;61.37
53647;BME280;39550;52.230;5.194;2022-09-06T02:18:09;101361.44;;;21.51;61.42
53647;BME280;39550;52.230;5.194;2022-09-06T02:20:44;101355.34;;;21.50;61.69
53647;BME280;39550;52.230;5.194;2022-09-06T02:23:13;101363.22;;;21.50;61.81
53647;BME280;39550;52.230;5.194;2022-09-06T02:25:45;101364.97;;;21.50;61.60
53647;BME280;39550;52.230;5.194;2022-09-06T02:28:12;101365.00;;;21.48;61.73
53647;BME280;39550;52.230;5.194;2022-09-06T02:30:42;101361.53;;;21.48;61.28
53647;BME280;39550;52.230;5.194;2022-09-06T02:33:15;101358.91;;;21.48;61.69
53647;BME280;39550;52.230;5.194;2022-09-06T02:35:50;101371.09;;;21.49;61.35
53647;BME280;39550;52.230;5.194;2022-09-06T02:38:16;101360.63;;;21.49;61.46
53647;BME280;39550;52.230;5.194;2022-09-06T02:40:43;101359.81;;;21.47;61.44
53647;BME280;39550;52.230;5.194;2022-09-06T02:43:09;101361.53;;;21.48;61.40
53647;BME280;39550;52.230;5.194;2022-09-06T02:45:35;101357.19;;;21.47;61.56
53647;BME280;39550;52.230;5.194;2022-09-06T02:48:00;101350.22;;;21.46;61.77
53647;BME280;39550;52.230;5.194;2022-09-06T02:50:25;101359.88;;;21.45;61.73
53647;BME280;39550;52.230;5.194;2022-09-06T02:53:04;101362.53;;;21.43;61.62
53647;BME280;39550;52.230;5.194;2022-09-06T02:55:30;101366.91;;;21.43;61.63
53647;BME280;39550;52.230;5.194;2022-09-06T02:57:55;101371.28;;;21.42;61.54
53647;BME280;39550;52.230;5.194;2022-09-06T03:00:21;101373.91;;;21.42;61.49
53647;BME280;39550;52.230;5.194;2022-09-06T03:02:46;101374.81;;;21.41;61.88
53647;BME280;39550;52.230;5.194;2022-09-06T03:05:12;101373.97;;;21.41;61.51
53647;BME280;39550;52.230;5.194;2022-09-06T03:07:38;101367.00;;;21.40;61.98
53647;BME280;39550;52.230;5.194;2022-09-06T03:10:03;101370.44;;;21.42;61.48
53647;BME280;39550;52.230;5.194;2022-09-06T03:12:29;101366.16;;;21.39;61.47
53647;BME280;39550;52.230;5.194;2022-09-06T03:14:54;101385.41;;;21.38;61.63
53647;BME280;39550;52.230;5.194;2022-09-06T03:17:20;101379.31;;;21.38;61.65
53647;BME280;39550;52.230;5.194;2022-09-06T03:19:45;101381.94;;;21.36;61.48
53647;BME280;39550;52.230;5.194;2022-09-06T03:22:11;101378.53;;;21.34;61.65
53647;BME280;39550;52.230;5.194;2022-09-06T03:24:36;101389.00;;;21.34;61.50
53647;BME280;39550;52.230;5.194;2022-09-06T03:27:02;101395.97;;;21.35;61.60
53647;BME280;39550;52.230;5.194;2022-09-06T03:29:27;101394.25;;;21.34;61.78
53647;BME280;39550;52.230;5.194;2022-09-06T03:31:52;101392.53;;;21.33;61.69
53647;BME280;39550;52.230;5.194;2022-09-06T03:34:18;101399.53;;;21.33;61.88
53647;BME280;39550;52.230;5.194;2022-09-06T03:36:43;101392.53;;;21.33;62.05
53647;BME280;39550;52.230;5.194;2022-09-06T03:39:08;101401.28;;;21.32;61.73
53647;BME280;39550;52.230;5.194;2022-09-06T03:41:33;101392.63;;;21.30;61.62
53647;BME280;39550;52.230;5.194;2022-09-06T03:43:59;101388.31;;;21.27;62.08
53647;BME280;39550;52.230;5.194;2022-09-06T03:46:24;101375.44;;;21.20;61.88
53647;BME280;39550;52.230;5.194;2022-09-06T03:48:49;101392.72;;;21.27;61.83
53647;BME280;39550;52.230;5.194;2022-09-06T03:51:15;101396.22;;;21.26;61.83
53647;BME280;39550;52.230;5.194;2022-09-06T03:53:40;101396.28;;;21.24;62.03
53647;BME280;39550;52.230;5.194;2022-09-06T03:56:05;101396.31;;;21.23;62.01
53647;BME280;39550;52.230;5.194;2022-09-06T03:58:31;101398.06;;;21.24;61.93
53647;BME280;39550;52.230;5.194;2022-09-06T04:01:08;101400.66;;;21.24;62.24
53647;BME280;39550;52.230;5.194;2022-09-06T04:03:35;101386.72;;;21.22;62.15
53647;BME280;39550;52.230;5.194;2022-09-06T04:06:01;101405.06;;;21.22;61.94
53647;BME280;39550;52.230;5.194;2022-09-06T04:08:26;101406.75;;;21.24;62.07
53647;BME280;39550;52.230;5.194;2022-09-06T04:10:53;101418.19;;;21.22;62.19
53647;BME280;39550;52.230;5.194;2022-09-06T04:13:18;101427.88;;;21.20;62.18
53647;BME280;39550;52.230;5.194;2022-09-06T04:15:44;101424.38;;;21.19;62.27
53647;BME280;39550;52.230;5.194;2022-09-06T04:18:10;101435.75;;;21.18;62.31
53647;BME280;39550;52.230;5.194;2022-09-06T04:20:36;101429.66;;;21.18;62.03
53647;BME280;39550;52.230;5.194;2022-09-06T04:23:01;101432.28;;;21.18;62.34
53647;BME280;39550;52.230;5.194;2022-09-06T04:25:26;101433.16;;;21.17;62.43
53647;BME280;39550;52.230;5.194;2022-09-06T04:27:52;101440.13;;;21.18;62.14
53647;BME280;39550;52.230;5.194;2022-09-06T04:30:17;101448.88;;;21.17;62.28
53647;BME280;39550;52.230;5.194;2022-09-06T04:32:42;101448.03;;;21.16;62.10
53647;BME280;39550;52.230;5.194;2022-09-06T04:35:07;101442.84;;;21.15;62.17
53647;BME280;39550;52.230;5.194;2022-09-06T04:37:33;101434.28;;;21.08;62.16
53647;BME280;39550;52.230;5.194;2022-09-06T04:39:58;101453.38;;;21.13;62.38
53647;BME280;39550;52.230;5.194;2022-09-06T04:42:23;101454.22;;;21.14;62.21
53647;BME280;39550;52.230;5.194;2022-09-06T04:44:49;101450.78;;;21.12;62.10
53647;BME280;39550;52.230;5.194;2022-09-06T04:47:14;101456.03;;;21.12;62.21
53647;BME280;39550;52.230;5.194;2022-09-06T04:49:42;101455.16;;;21.11;62.10
53647;BME280;39550;52.230;5.194;2022-09-06T04:52:08;101458.69;;;21.10;62.19
53647;BME280;39550;52.230;5.194;2022-09-06T04:54:33;101463.94;;;21.10;62.08
53647;BME280;39550;52.230;5.194;2022-09-06T04:56:58;101459.63;;;21.07;62.48
53647;BME280;39550;52.230;5.194;2022-09-06T04:59:24;101459.63;;;21.07;62.13
53647;BME280;39550;52.230;5.194;2022-09-06T05:01:49;101458.72;;;21.08;62.22
53647;BME280;39550;52.230;5.194;2022-09-06T05:04:14;101461.44;;;21.05;62.28
53647;BME280;39550;52.230;5.194;2022-09-06T05:06:40;101466.63;;;21.07;62.17
53647;BME280;39550;52.230;5.194;2022-09-06T05:09:07;101468.41;;;21.06;62.43
53647;BME280;39550;52.230;5.194;2022-09-06T05:11:32;101469.38;;;21.02;62.14
53647;BME280;39550;52.230;5.194;2022-09-06T05:13:58;101462.41;;;21.01;63.02
53647;BME280;39550;52.230;5.194;2022-09-06T05:16:23;101458.94;;;21.01;62.72
53647;BME280;39550;52.230;5.194;2022-09-06T05:18:48;101461.59;;;20.99;62.66
53647;BME280;39550;52.230;5.194;2022-09-06T05:21:14;101468.53;;;21.00;62.73
53647;BME280;39550;52.230;5.194;2022-09-06T05:23:41;101452.00;;;20.98;62.86
53647;BME280;39550;52.230;5.194;2022-09-06T05:26:06;101451.16;;;20.96;62.78
53647;BME280;39550;52.230;5.194;2022-09-06T05:28:32;101458.06;;;21.00;62.71
53647;BME280;39550;52.230;5.194;2022-09-06T05:31:08;101458.03;;;21.02;63.08
53647;BME280;39550;52.230;5.194;2022-09-06T05:33:34;101456.28;;;21.02;64.63
53647;BME280;39550;52.230;5.194;2022-09-06T05:36:01;101452.25;;;20.89;64.51
53647;BME280;39550;52.230;5.194;2022-09-06T05:38:26;101442.91;;;20.79;65.30
53647;BME280;39550;52.230;5.194;2022-09-06T05:40:51;101439.56;;;20.72;65.87
53647;BME280;39550;52.230;5.194;2022-09-06T05:43:16;101438.81;;;20.65;65.78
53647;BME280;39550;52.230;5.194;2022-09-06T05:45:42;101438.94;;;20.61;66.28
53647;BME280;39550;52.230;5.194;2022-09-06T05:48:07;101447.75;;;20.58;66.55
53647;BME280;39550;52.230;5.194;2022-09-06T05:50:33;101455.69;;;20.55;66.81
53647;BME280;39550;52.230;5.194;2022-09-06T05:52:58;101454.00;;;20.52;66.98
53647;BME280;39550;52.230;5.194;2022-09-06T05:55:24;101453.16;;;20.50;66.93
53647;BME280;39550;52.230;5.194;2022-09-06T05:57:49;101441.88;;;20.48;67.17
53647;BME280;39550;52.230;5.194;2022-09-06T06:00:14;101442.00;;;20.44;67.48
53647;BME280;39550;52.230;5.194;2022-09-06T06:02:40;101439.69;;;20.28;67.99
53647;BME280;39550;52.230;5.194;2022-09-06T06:05:06;101446.63;;;20.31;67.83
53647;BME280;39550;52.230;5.194;2022-09-06T06:07:32;101453.50;;;20.35;67.60
53647;BME280;39550;52.230;5.194;2022-09-06T06:09:57;101456.06;;;20.38;67.68
53647;BME280;39550;52.230;5.194;2022-09-06T06:12:22;101454.25;;;20.41;67.87
53647;BME280;39550;52.230;5.194;2022-09-06T06:14:48;101450.81;;;20.39;67.91
53647;BME280;39550;52.230;5.194;2022-09-06T06:17:13;101440.19;;;20.46;67.47
53647;BME280;39550;52.230;5.194;2022-09-06T06:19:38;101453.09;;;20.53;66.75
53647;BME280;39550;52.230;5.194;2022-09-06T06:22:04;101447.69;;;20.59;66.25
53647;BME280;39550;52.230;5.194;2022-09-06T06:24:29;101447.56;;;20.64;66.13
53647;BME280;39550;52.230;5.194;2022-09-06T06:26:55;101440.59;;;20.65;66.29
53647;BME280;39550;52.230;5.194;2022-09-06T06:29:20;101437.94;;;20.66;65.87
53647;BME280;39550;52.230;5.194;2022-09-06T06:31:45;101441.41;;;20.68;65.34
53647;BME280;39550;52.230;5.194;2022-09-06T06:34:10;101428.31;;;20.67;65.45
53647;BME280;39550;52.230;5.194;2022-09-06T06:36:36;101435.22;;;20.71;65.14
53647;BME280;39550;52.230;5.194;2022-09-06T06:39:04;101446.50;;;20.74;64.74
53647;BME280;39550;52.230;5.194;2022-09-06T06:41:30;101438.66;;;20.74;64.65
53647;BME280;39550;52.230;5.194;2022-09-06T06:43:58;101441.25;;;20.74;64.93
53647;BME280;39550;52.230;5.194;2022-09-06T06:46:26;101436.03;;;20.74;64.76
53647;BME280;39550;52.230;5.194;2022-09-06T06:48:52;101443.84;;;20.76;64.36
53647;BME280;39550;52.230;5.194;2022-09-06T06:51:20;101449.94;;;20.77;64.37
53647;BME280;39550;52.230;5.194;2022-09-06T06:53:46;101441.19;;;20.78;64.62
53647;BME280;39550;52.230;5.194;2022-09-06T06:56:33;101431.59;;;20.77;64.51
53647;BME280;39550;52.230;5.194;2022-09-06T06:59:01;101433.31;;;20.78;64.24
53647;BME280;39550;52.230;5.194;2022-09-06T07:01:28;101429.84;;;20.77;64.00
53647;BME280;39550;52.230;5.194;2022-09-06T07:03:54;101433.38;;;20.76;64.32
53647;BME280;39550;52.230;5.194;2022-09-06T07:06:20;101426.34;;;20.77;64.06
53647;BME280;39550;52.230;5.194;2022-09-06T07:08:46;101434.22;;;20.77;63.51
53647;BME280;39550;52.230;5.194;2022-09-06T07:11:13;101428.97;;;20.77;63.80
53647;BME280;39550;52.230;5.194;2022-09-06T07:13:39;101417.66;;;20.76;63.82
53647;BME280;39550;52.230;5.194;2022-09-06T07:16:06;101413.25;;;20.77;63.34
53647;BME280;39550;52.230;5.194;2022-09-06T07:18:32;101408.03;;;20.77;63.56
53647;BME280;39550;52.230;5.194;2022-09-06T07:20:57;101406.28;;;20.77;63.67
53647;BME280;39550;52.230;5.194;2022-09-06T07:23:23;101406.25;;;20.79;63.17
53647;BME280;39550;52.230;5.194;2022-09-06T07:25:49;101410.59;;;20.78;63.18
53647;BME280;39550;52.230;5.194;2022-09-06T07:28:14;101414.09;;;20.79;63.08
53647;BME280;39550;52.230;5.194;2022-09-06T07:30:40;101404.47;;;20.79;62.82
53647;BME280;39550;52.230;5.194;2022-09-06T07:33:06;101411.38;;;20.82;63.08
53647;BME280;39550;52.230;5.194;2022-09-06T07:35:32;101414.00;;;20.82;62.99
53647;BME280;39550;52.230;5.194;2022-09-06T07:37:59;101405.34;;;20.80;62.96
53647;BME280;39550;52.230;5.194;2022-09-06T07:40:27;101409.66;;;20.81;63.11
53647;BME280;39550;52.230;5.194;2022-09-06T07:42:58;101409.66;;;20.81;63.03
53647;BME280;39550;52.230;5.194;2022-09-06T07:45:24;101416.63;;;20.82;62.79
53647;BME280;39550;52.230;5.194;2022-09-06T07:47:54;101416.53;;;20.85;62.63
53647;BME280;39550;52.230;5.194;2022-09-06T07:50:20;101418.34;;;20.83;62.65
53647;BME280;39550;52.230;5.194;2022-09-06T07:52:45;101418.34;;;20.83;62.34
53647;BME280;39550;52.230;5.194;2022-09-06T07:55:10;101416.53;;;20.85;62.59
53647;BME280;39550;52.230;5.194;2022-09-06T07:57:36;101421.78;;;20.85;62.65
53647;BME280;39550;52.230;5.194;2022-09-06T08:00:02;101426.13;;;20.86;62.46
53647;BME280;39550;52.230;5.194;2022-09-06T08:02:28;101426.97;;;20.86;62.42
53647;BME280;39550;52.230;5.194;2022-09-06T08:04:55;101420.84;;;20.87;62.50
53647;BME280;39550;52.230;5.194;2022-09-06T08:07:21;101409.53;;;20.87;62.65
53647;BME280;39550;52.230;5.194;2022-09-06T08:09:46;101409.53;;;20.87;62.40
53647;BME280;39550;52.230;5.194;2022-09-06T08:12:11;101401.63;;;20.88;62.24
53647;BME280;39550;52.230;5.194;2022-09-06T08:14:37;101402.47;;;20.89;62.14
53647;BME280;39550;52.230;5.194;2022-09-06T08:17:02;101401.56;;;20.90;62.16
53647;BME280;39550;52.230;5.194;2022-09-06T08:19:28;101397.13;;;20.92;61.85
53647;BME280;39550;52.230;5.194;2022-09-06T08:21:53;101383.22;;;20.90;61.99
53647;BME280;39550;52.230;5.194;2022-09-06T08:24:20;101391.91;;;20.92;61.96
53647;BME280;39550;52.230;5.194;2022-09-06T08:26:45;101378.78;;;20.94;61.92
53647;BME280;39550;52.230;5.194;2022-09-06T08:29:11;101382.25;;;20.94;61.76
53647;BME280;39550;52.230;5.194;2022-09-06T08:31:40;101381.34;;;20.95;62.06
53647;BME280;39550;52.230;5.194;2022-09-06T08:34:06;101393.47;;;20.99;61.63
53647;BME280;39550;52.230;5.194;2022-09-06T08:36:32;101383.06;;;20.96;62.09
53647;BME280;39550;52.230;5.194;2022-09-06T08:39:00;101383.00;;;20.99;61.51
53647;BME280;39550;52.230;5.194;2022-09-06T08:41:36;101375.94;;;21.01;61.77
53647;BME280;39550;52.230;5.194;2022-09-06T08:44:08;101383.72;;;21.04;61.31
53647;BME280;39550;52.230;5.194;2022-09-06T08:46:39;101382.84;;;21.04;61.41
53647;BME280;39550;52.230;5.194;2022-09-06T08:49:06;101395.03;;;21.06;61.38
53647;BME280;39550;52.230;5.194;2022-09-06T08:54:40;101390.47;;;21.13;61.53
53647;BME280;39550;52.230;5.194;2022-09-06T08:57:35;101377.22;;;21.18;61.43
53647;BME280;39550;52.230;5.194;2022-09-06T09:00:05;101380.69;;;21.20;61.32
53647;BME280;39550;52.230;5.194;2022-09-06T09:02:45;101381.50;;;21.22;61.22
53647;BME280;39550;52.230;5.194;2022-09-06T09:05:22;101385.84;;;21.23;60.97
53647;BME280;39550;52.230;5.194;2022-09-06T09:08:16;101376.19;;;21.23;61.08
53647;BME280;39550;52.230;5.194;2022-09-06T09:10:48;101380.63;;;21.21;61.32
53647;BME280;39550;52.230;5.194;2022-09-06T09:13:29;101366.59;;;21.24;60.87
53647;BME280;39550;52.230;5.194;2022-09-06T09:15:55;101372.63;;;21.26;61.00
53647;BME280;39550;52.230;5.194;2022-09-06T09:18:24;101376.09;;;21.26;61.22
53647;BME280;39550;52.230;5.194;2022-09-06T09:20:51;101361.31;;;21.25;61.04
53647;BME280;39550;52.230;5.194;2022-09-06T09:23:17;101366.41;;;21.30;60.94
53647;BME280;39550;52.230;5.194;2022-09-06T09:25:43;101361.13;;;21.32;60.95
53647;BME280;39550;52.230;5.194;2022-09-06T09:28:16;101371.47;;;21.36;60.96
53647;BME280;39550;52.230;5.194;2022-09-06T09:30:48;101365.31;;;21.37;60.79
53647;BME280;39550;52.230;5.194;2022-09-06T09:33:32;101355.72;;;21.36;61.15
53647;BME280;39550;52.230;5.194;2022-09-06T09:36:05;101354.78;;;21.39;61.19
53647;BME280;39550;52.230;5.194;2022-09-06T09:38:45;101364.22;;;21.44;60.71
53647;BME280;39550;52.230;5.194;2022-09-06T09:41:26;101372.94;;;21.47;60.86
53647;BME280;39550;52.230;5.194;2022-09-06T09:43:56;101367.69;;;21.47;60.68
53647;BME280;39550;52.230;5.194;2022-09-06T09:49:12;101368.69;;;21.42;60.94
53647;BME280;39550;52.230;5.194;2022-09-06T09:51:42;101364.22;;;21.44;60.79
53647;BME280;39550;52.230;5.194;2022-09-06T09:54:10;101371.16;;;21.47;60.85
53647;BME280;39550;52.230;5.194;2022-09-06T09:56:49;101368.41;;;21.52;61.08
53647;BME280;39550;52.230;5.194;2022-09-06T09:59:39;101359.66;;;21.51;60.95
53647;BME280;39550;52.230;5.194;2022-09-06T10:02:36;101369.16;;;21.57;60.88
53647;BME280;39550;52.230;5.194;2022-09-06T10:05:18;101355.97;;;21.60;60.76
53647;BME280;39550;52.230;5.194;2022-09-06T10:07:46;101358.50;;;21.63;60.68
53647;BME280;39550;52.230;5.194;2022-09-06T10:10:20;101358.38;;;21.66;60.67
53647;BME280;39550;52.230;5.194;2022-09-06T10:12:45;101360.97;;;21.68;60.51
53647;BME280;39550;52.230;5.194;2022-09-06T10:15:30;101362.69;;;21.69;60.73
53647;BME280;39550;52.230;5.194;2022-09-06T10:17:56;101363.53;;;21.69;60.79
53647;BME280;39550;52.230;5.194;2022-09-06T10:20:47;101362.63;;;21.70;60.61
53647;BME280;39550;52.230;5.194;2022-09-06T10:23:28;101359.91;;;21.73;60.48
53647;BME280;39550;52.230;5.194;2022-09-06T10:26:06;101360.75;;;21.75;60.65
53647;BME280;39550;52.230;5.194;2022-09-06T10:28:34;101356.28;;;21.77;60.83
53647;BME280;39550;52.230;5.194;2022-09-06T10:31:32;101359.75;;;21.80;60.75
53647;BME280;39550;52.230;5.194;2022-09-06T10:34:12;101364.03;;;21.82;60.34
53647;BME280;39550;52.230;5.194;2022-09-06T10:40:09;101383.94;;;21.89;60.45
53647;BME280;39550;52.230;5.194;2022-09-06T10:42:45;101377.72;;;21.92;60.29
53647;BME280;39550;52.230;5.194;2022-09-06T10:50:13;101370.75;;;21.91;60.43
53647;BME280;39550;52.230;5.194;2022-09-06T10:52:43;101376.06;;;21.89;60.69
53647;BME280;39550;52.230;5.194;2022-09-06T10:55:13;101373.38;;;21.91;60.65
53647;BME280;39550;52.230;5.194;2022-09-06T10:57:47;101376.81;;;21.93;60.71
53647;BME280;39550;52.230;5.194;2022-09-06T11:00:13;101373.28;;;21.94;60.67
53647;BME280;39550;52.230;5.194;2022-09-06T11:05:28;101394.78;;;22.05;60.01
53647;BME280;39550;52.230;5.194;2022-09-06T11:08:00;101388.63;;;22.06;60.52
53647;BME280;39550;52.230;5.194;2022-09-06T11:10:30;101391.31;;;22.05;60.34
53647;BME280;39550;52.230;5.194;2022-09-06T11:13:13;101393.03;;;22.06;60.62
53647;BME280;39550;52.230;5.194;2022-09-06T11:15:47;101388.53;;;22.09;60.37
53647;BME280;39550;52.230;5.194;2022-09-06T11:27:05;101405.41;;;22.29;60.50
53647;BME280;39550;52.230;5.194;2022-09-06T11:29:39;101407.09;;;22.32;60.21
53647;BME280;39550;52.230;5.194;2022-09-06T11:32:29;101404.41;;;22.33;59.76
53647;BME280;39550;52.230;5.194;2022-09-06T11:35:02;101403.78;;;22.26;59.94
53647;BME280;39550;52.230;5.194;2022-09-06T11:37:35;101410.66;;;22.29;60.15
53647;BME280;39550;52.230;5.194;2022-09-06T11:40:15;101415.06;;;22.28;60.23
53647;BME280;39550;52.230;5.194;2022-09-06T11:45:40;101408.88;;;22.31;60.38
53647;BME280;39550;52.230;5.194;2022-09-06T11:56:33;101420.50;;;22.51;59.90
53647;BME280;39550;52.230;5.194;2022-09-06T11:59:06;101415.47;;;22.44;60.34
53647;BME280;39550;52.230;5.194;2022-09-06T12:01:35;101407.78;;;22.38;59.96
53647;BME280;39550;52.230;5.194;2022-09-06T12:04:03;101410.28;;;22.41;60.49
53647;BME280;39550;52.230;5.194;2022-09-06T12:08:56;101418.91;;;22.47;60.01
53647;BME280;39550;52.230;5.194;2022-09-06T12:11:35;101422.22;;;22.52;60.14
53647;BME280;39550;52.230;5.194;2022-09-06T12:14:35;101418.72;;;22.53;59.86
53647;BME280;39550;52.230;5.194;2022-09-06T12:20:01;101410.38;;;22.67;59.93
53647;BME280;39550;52.230;5.194;2022-09-06T12:27:59;101407.22;;;22.82;59.28
53647;BME280;39550;52.230;5.194;2022-09-06T12:33:04;101399.09;;;22.88;59.22
53647;BME280;39550;52.230;5.194;2022-09-06T12:35:31;101408.44;;;22.97;59.01
53647;BME280;39550;52.230;5.194;2022-09-06T12:38:00;101388.78;;;23.07;58.63
53647;BME280;39550;52.230;5.194;2022-09-06T12:40:29;101385.06;;;23.15;58.83
53647;BME280;39550;52.230;5.194;2022-09-06T12:42:56;101388.00;;;23.31;57.91
53647;BME280;39550;52.230;5.194;2022-09-06T12:45:21;101387.69;;;23.38;57.95
53647;BME280;39550;52.230;5.194;2022-09-06T12:47:48;101387.81;;;23.35;57.69
53647;BME280;39550;52.230;5.194;2022-09-06T12:50:21;101389.88;;;23.27;58.17
53647;BME280;39550;52.230;5.194;2022-09-06T12:52:53;101397.59;;;23.06;59.00
53647;BME280;39550;52.230;5.194;2022-09-06T12:55:33;101397.47;;;23.09;58.62
53647;BME280;39550;52.230;5.194;2022-09-06T12:58:04;101397.72;;;23.03;59.35
53647;BME280;39550;52.230;5.194;2022-09-06T13:00:36;101397.53;;;23.08;59.28
53647;BME280;39550;52.230;5.194;2022-09-06T13:06:02;101381.16;;;23.00;59.03
53647;BME280;39550;52.230;5.194;2022-09-06T13:08:35;101367.25;;;22.98;59.15
53647;BME280;39550;52.230;5.194;2022-09-06T13:11:08;101369.44;;;23.10;59.45
53647;BME280;39550;52.230;5.194;2022-09-06T13:13:35;101368.50;;;23.12;59.19
53647;BME280;39550;52.230;5.194;2022-09-06T13:16:01;101361.25;;;23.19;59.16
53647;BME280;39550;52.230;5.194;2022-09-06T13:18:35;101358.13;;;23.32;58.62
53647;BME280;39550;52.230;5.194;2022-09-06T13:21:09;101345.75;;;23.35;58.68
53647;BME280;39550;52.230;5.194;2022-09-06T13:23:48;101356.06;;;23.41;58.26
53647;BME280;39550;52.230;5.194;2022-09-06T13:26:37;101346.53;;;23.61;58.20
53647;BME280;39550;52.230;5.194;2022-09-06T13:31:51;101333.97;;;23.91;57.15
53647;BME280;39550;52.230;5.194;2022-09-06T13:36:50;101320.16;;;24.50;55.27
53647;BME280;39550;52.230;5.194;2022-09-06T13:42:06;101314.69;;;24.75;54.83
53647;BME280;39550;52.230;5.194;2022-09-06T13:44:34;101314.84;;;24.72;54.95
53647;BME280;39550;52.230;5.194;2022-09-06T13:47:00;101315.81;;;24.69;55.09
53647;BME280;39550;52.230;5.194;2022-09-06T13:49:26;101305.88;;;24.76;54.82
53647;BME280;39550;52.230;5.194;2022-09-06T13:51:53;101310.63;;;24.87;54.55
53647;BME280;39550;52.230;5.194;2022-09-06T13:54:22;101305.34;;;24.87;54.35
53647;BME280;39550;52.230;5.194;2022-09-06T13:56:48;101312.25;;;24.70;54.87
53647;BME280;39550;52.230;5.194;2022-09-06T13:59:15;101318.03;;;24.58;55.22
53647;BME280;39550;52.230;5.194;2022-09-06T14:01:44;101321.78;;;24.73;54.99
53647;BME280;39550;52.230;5.194;2022-09-06T14:04:13;101305.06;;;25.13;54.13
53647;BME280;39550;52.230;5.194;2022-09-06T14:06:39;101303.22;;;25.35;53.24
53647;BME280;39550;52.230;5.194;2022-09-06T14:09:05;101318.25;;;25.13;53.77
53647;BME280;39550;52.230;5.194;2022-09-06T14:11:31;101326.50;;;24.66;55.25
53647;BME280;39550;52.230;5.194;2022-09-06T14:13:56;101337.41;;;24.57;55.36
53647;BME280;39550;52.230;5.194;2022-09-06T14:16:21;101325.28;;;25.13;53.98
53647;BME280;39550;52.230;5.194;2022-09-06T14:18:47;101330.53;;;24.94;54.27
53647;BME280;39550;52.230;5.194;2022-09-06T14:21:12;101334.44;;;24.64;55.37
53647;BME280;39550;52.230;5.194;2022-09-06T14:23:37;101328.72;;;25.15;53.26
53647;BME280;39550;52.230;5.194;2022-09-06T14:26:04;101333.63;;;25.80;51.91
53647;BME280;39550;52.230;5.194;2022-09-06T14:28:30;101337.69;;;25.68;52.07